createdAt,value
2023-01-02T00:01:00.701Z,2.88
2023-01-02T00:03:28.139Z,3.03
2023-01-02T00:05:55.409Z,2.88
2023-01-02T00:08:22.475Z,2.80
2023-01-02T00:10:53.137Z,3.20
2023-01-02T00:13:20.574Z,2.88
2023-01-02T00:15:47.606Z,2.63
2023-01-02T00:18:14.513Z,2.47
2023-01-02T00:20:41.641Z,3.13
2023-01-02T00:23:08.819Z,2.63
2023-01-02T00:25:35.833Z,2.85
2023-01-02T00:28:03.199Z,3.28
2023-01-02T00:30:37.647Z,2.75
2023-01-02T00:33:06.358Z,3.03
2023-01-02T00:35:33.768Z,2.70
2023-01-02T00:38:00.705Z,2.92
2023-01-02T00:40:27.589Z,2.60
2023-01-02T00:42:54.558Z,2.30
2023-01-02T00:45:21.469Z,3.25
2023-01-02T00:47:48.510Z,3.28
2023-01-02T00:50:15.547Z,2.70
2023-01-02T00:52:42.660Z,3.42
2023-01-02T00:55:09.925Z,3.30
2023-01-02T00:57:37.515Z,3.17
2023-01-02T01:00:06.575Z,3.00
2023-01-02T01:02:33.655Z,3.45
2023-01-02T01:05:00.659Z,2.75
2023-01-02T01:07:29.297Z,3.08
2023-01-02T01:09:56.143Z,2.97
2023-01-02T01:12:23.274Z,2.97
2023-01-02T01:14:50.175Z,3.53
2023-01-02T01:17:17.046Z,3.13
2023-01-02T01:19:44.141Z,3.72
2023-01-02T01:22:11.955Z,3.50
2023-01-02T01:24:38.927Z,3.15
2023-01-02T01:27:05.800Z,3.45
2023-01-02T01:29:32.723Z,3.53
2023-01-02T01:31:59.643Z,3.53
2023-01-02T01:34:26.613Z,3.60
2023-01-02T01:36:53.473Z,3.47
2023-01-02T01:39:20.406Z,2.95
2023-01-02T01:41:47.513Z,3.22
2023-01-02T01:44:52.931Z,2.90
2023-01-02T01:47:51.861Z,2.60
2023-01-02T01:50:24.953Z,1.95
2023-01-02T01:52:56.610Z,2.70
2023-01-02T01:55:32.022Z,2.50
2023-01-02T01:58:06.628Z,2.78
2023-01-02T02:00:34.695Z,2.75
2023-01-02T02:03:07.440Z,2.50
2023-01-02T02:05:35.115Z,3.00
2023-01-02T02:08:10.952Z,2.53
2023-01-02T02:10:38.484Z,2.20
2023-01-02T02:13:05.608Z,2.28
2023-01-02T02:15:47.734Z,2.80
2023-01-02T02:18:33.165Z,2.53
2023-01-02T02:21:35.036Z,2.78
2023-01-02T02:24:01.953Z,2.70
2023-01-02T02:26:34.638Z,2.60
2023-01-02T02:29:26.256Z,2.53
2023-01-02T02:36:19.686Z,2.58
2023-01-02T02:39:11.743Z,2.47
2023-01-02T02:41:53.597Z,2.35
2023-01-02T02:45:01.720Z,2.17
2023-01-02T02:47:35.568Z,2.22
2023-01-02T02:50:18.660Z,2.47
2023-01-02T02:52:51.940Z,2.03
2023-01-02T02:55:44.652Z,2.10
2023-01-02T02:58:14.683Z,2.17
2023-01-02T03:00:41.545Z,2.70
2023-01-02T03:03:17.154Z,2.80
2023-01-02T03:06:08.975Z,2.10
2023-01-02T03:08:42.777Z,1.73
2023-01-02T03:11:11.070Z,1.80
2023-01-02T03:13:50.394Z,2.03
2023-01-02T03:16:39.505Z,2.17
2023-01-02T03:19:11.408Z,2.05
2023-01-02T03:21:41.541Z,1.88
2023-01-02T03:24:12.585Z,1.70
2023-01-02T03:26:43.989Z,1.90
2023-01-02T03:29:16.930Z,1.45
2023-01-02T03:34:15.632Z,1.92
2023-01-02T03:36:45.273Z,1.80
2023-01-02T03:39:34.703Z,2.20
2023-01-02T03:42:12.776Z,1.90
2023-01-02T03:45:12.980Z,1.95
2023-01-02T03:47:49.273Z,2.10
2023-01-02T03:50:23.510Z,2.40
2023-01-02T03:52:50.670Z,2.17
2023-01-02T03:55:18.235Z,1.98
2023-01-02T03:57:57.043Z,1.70
2023-01-02T04:00:41.259Z,2.05
2023-01-02T04:03:14.379Z,1.80
2023-01-02T04:05:58.375Z,1.40
2023-01-02T04:08:30.945Z,2.00
2023-01-02T04:11:00.966Z,2.22
2023-01-02T04:13:39.426Z,2.00
2023-01-02T04:16:10.387Z,2.15
2023-01-02T04:18:46.646Z,1.90
2023-01-02T04:21:19.576Z,2.30
2023-01-02T04:24:12.932Z,2.13
2023-01-02T04:26:55.081Z,2.50
2023-01-02T04:29:22.040Z,2.95
2023-01-02T04:32:01.337Z,2.13
2023-01-02T04:34:32.054Z,2.15
2023-01-02T04:36:59.184Z,2.20
2023-01-02T04:39:29.042Z,2.00
2023-01-02T04:41:55.983Z,1.85
2023-01-02T04:44:22.935Z,1.80
2023-01-02T04:46:49.951Z,2.13
2023-01-02T04:49:16.860Z,2.70
2023-01-02T04:51:44.463Z,1.80
2023-01-02T04:54:12.246Z,1.95
2023-01-02T04:56:39.384Z,2.30
2023-01-02T04:59:06.419Z,2.10
2023-01-02T05:01:33.426Z,2.35
2023-01-02T05:04:00.494Z,1.95
2023-01-02T05:06:27.348Z,2.00
2023-01-02T05:08:54.373Z,2.03
2023-01-02T05:11:21.637Z,2.28
2023-01-02T05:13:48.558Z,1.70
2023-01-02T05:16:15.519Z,2.03
2023-01-02T05:18:42.709Z,1.73
2023-01-02T05:21:30.732Z,2.03
2023-01-02T05:24:00.135Z,2.10
2023-01-02T05:26:27.499Z,1.80
2023-01-02T05:28:55.014Z,2.15
2023-01-02T05:31:22.069Z,2.13
2023-01-02T05:33:53.376Z,2.38
2023-01-02T05:36:21.508Z,2.10
2023-01-02T05:38:48.955Z,1.98
2023-01-02T05:41:16.636Z,2.05
2023-01-02T05:43:43.572Z,1.77
2023-01-02T05:46:18.862Z,1.60
2023-01-02T05:48:46.453Z,2.22
2023-01-02T05:51:16.465Z,2.00
2023-01-02T05:53:44.170Z,1.70
2023-01-02T05:56:17.178Z,1.90
2023-01-02T06:01:15.299Z,2.20
2023-01-02T06:03:50.035Z,1.80
2023-01-02T06:06:19.093Z,1.80
2023-01-02T06:08:46.093Z,1.85
2023-01-02T06:11:14.353Z,1.92
2023-01-02T06:13:42.628Z,1.67
2023-01-02T06:16:11.091Z,1.60
2023-01-02T06:18:39.324Z,2.15
2023-01-02T06:21:09.068Z,1.80
2023-01-02T06:23:37.657Z,1.40
2023-01-02T06:26:10.415Z,2.00
2023-01-02T06:28:37.849Z,1.70
2023-01-02T06:31:10.363Z,1.80
2023-01-02T06:33:37.685Z,2.65
2023-01-02T06:36:13.727Z,2.97
2023-01-02T06:38:40.740Z,4.40
2023-01-02T06:41:09.066Z,3.78
2023-01-02T06:43:40.984Z,3.58
2023-01-02T06:46:07.997Z,3.38
2023-01-02T06:48:35.426Z,2.55
2023-01-02T06:51:10.780Z,1.98
2023-01-02T06:53:39.885Z,1.80
2023-01-02T06:56:07.961Z,1.60
2023-01-02T06:58:36.435Z,1.67
2023-01-02T07:01:09.340Z,1.35
2023-01-02T07:03:36.432Z,1.50
2023-01-02T07:06:10.250Z,1.52
2023-01-02T07:08:37.958Z,1.65
2023-01-02T07:11:13.381Z,1.50
2023-01-02T07:13:41.850Z,2.38
2023-01-02T07:16:11.990Z,1.45
2023-01-02T07:18:39.258Z,2.15
2023-01-02T07:21:08.054Z,1.60
2023-01-02T07:23:35.594Z,1.65
2023-01-02T07:26:04.982Z,1.75
2023-01-02T07:28:33.020Z,1.38
2023-01-02T07:31:02.479Z,1.90
2023-01-02T07:33:30.310Z,2.30
2023-01-02T07:36:02.629Z,2.40
2023-01-02T07:38:29.872Z,3.90
2023-01-02T07:40:56.839Z,2.55
2023-01-02T07:43:24.962Z,2.90
2023-01-02T07:45:51.997Z,3.05
2023-01-02T07:48:19.474Z,2.05
2023-01-02T07:50:46.778Z,2.72
2023-01-02T07:53:13.964Z,2.97
2023-01-02T07:55:41.065Z,2.80
2023-01-02T07:58:08.116Z,2.38
2023-01-02T08:00:35.179Z,2.38
2023-01-02T08:03:02.349Z,2.05
2023-01-02T08:05:29.412Z,2.05
2023-01-02T08:07:56.351Z,4.85
2023-01-02T08:10:23.231Z,2.55
2023-01-02T08:12:50.214Z,2.42
2023-01-02T08:15:17.597Z,1.73
2023-01-02T08:17:44.516Z,2.00
2023-01-02T08:20:11.856Z,1.50
2023-01-02T08:22:38.943Z,1.48
2023-01-02T08:25:07.787Z,2.35
2023-01-02T08:27:34.811Z,2.25
2023-01-02T08:30:02.089Z,2.15
2023-01-02T08:32:29.033Z,2.35
2023-01-02T08:34:56.079Z,2.10
2023-01-02T08:37:42.510Z,1.45
2023-01-02T08:40:12.207Z,2.28
2023-01-02T08:42:43.078Z,1.80
2023-01-02T08:45:10.780Z,1.52
2023-01-02T08:47:37.935Z,2.55
2023-01-02T08:50:08.154Z,2.30
2023-01-02T08:52:35.124Z,2.30
2023-01-02T08:55:03.945Z,2.63
2023-01-02T08:57:32.876Z,1.73
2023-01-02T09:00:01.134Z,1.95
2023-01-02T09:02:28.221Z,1.92
2023-01-02T09:04:55.356Z,2.40
2023-01-02T09:07:22.411Z,2.35
2023-01-02T09:09:50.663Z,2.20
2023-01-02T09:12:18.683Z,3.13
2023-01-02T09:14:45.800Z,3.58
2023-01-02T09:17:12.871Z,2.47
2023-01-02T09:19:40.156Z,2.30
2023-01-02T09:22:09.260Z,1.92
2023-01-02T09:24:36.365Z,1.70
2023-01-02T09:27:03.770Z,2.10
2023-01-02T09:29:31.743Z,2.05
2023-01-02T09:32:00.438Z,3.75
2023-01-02T09:34:28.156Z,2.53
2023-01-02T09:36:55.077Z,2.53
2023-01-02T09:39:25.599Z,2.15
2023-01-02T09:41:59.120Z,2.97
2023-01-02T09:44:37.532Z,2.53
2023-01-02T09:47:12.993Z,1.70
2023-01-02T09:49:51.243Z,2.05
2023-01-02T09:52:32.271Z,2.15
2023-01-02T09:54:59.832Z,2.30
2023-01-02T09:57:26.970Z,2.30
2023-01-02T10:00:02.856Z,2.75
2023-01-02T10:02:55.886Z,2.00
2023-01-02T10:05:40.941Z,1.63
2023-01-02T10:08:20.195Z,2.97
2023-01-02T10:11:03.634Z,1.70
2023-01-02T10:14:08.856Z,2.03
2023-01-02T10:18:55.791Z,1.75
2023-01-02T10:21:27.289Z,2.65
2023-01-02T10:24:03.757Z,1.95
2023-01-02T10:26:47.692Z,2.10
2023-01-02T10:29:19.349Z,2.58
2023-01-02T10:31:58.248Z,2.20
2023-01-02T10:34:25.567Z,2.10
2023-01-02T10:36:52.495Z,2.28
2023-01-02T10:39:27.825Z,2.50
2023-01-02T10:41:58.706Z,2.20
2023-01-02T10:44:33.998Z,2.33
2023-01-02T10:47:19.287Z,2.17
2023-01-02T10:49:47.770Z,2.67
2023-01-02T10:52:39.261Z,3.22
2023-01-02T10:55:06.602Z,2.60
2023-01-02T10:57:43.653Z,2.50
2023-01-02T11:00:27.547Z,2.30
2023-01-02T11:02:58.718Z,2.08
2023-01-02T11:05:28.965Z,2.22
2023-01-02T11:07:57.221Z,2.38
2023-01-02T11:10:28.858Z,2.38
2023-01-02T11:12:56.345Z,2.72
2023-01-02T11:15:27.656Z,1.85
2023-01-02T11:17:54.832Z,3.05
2023-01-02T11:20:32.518Z,3.30
2023-01-02T11:23:02.584Z,4.43
2023-01-02T11:25:44.259Z,3.30
2023-01-02T11:28:32.507Z,4.43
2023-01-02T11:31:09.060Z,4.25
2023-01-02T11:33:38.146Z,3.20
2023-01-02T11:36:06.537Z,3.58
2023-01-02T11:38:44.339Z,3.45
2023-01-02T11:41:48.325Z,3.45
2023-01-02T11:46:48.563Z,2.65
2023-01-02T11:49:21.447Z,4.35
2023-01-02T11:51:56.399Z,4.35
2023-01-02T11:54:31.058Z,2.83
2023-01-02T11:57:00.268Z,5.60
2023-01-02T11:59:41.535Z,6.05
2023-01-02T12:02:20.565Z,3.65
2023-01-02T12:04:47.759Z,5.03
2023-01-02T12:07:20.731Z,6.65
2023-01-02T12:10:16.119Z,3.67
2023-01-02T12:13:04.198Z,2.75
2023-01-02T12:15:43.540Z,4.63
2023-01-02T12:18:39.572Z,3.30
2023-01-02T12:21:27.126Z,4.22
2023-01-02T12:24:06.459Z,3.50
2023-01-02T12:26:55.418Z,3.58
2023-01-02T12:29:47.093Z,3.55
2023-01-02T12:32:51.262Z,3.10
2023-01-02T12:35:30.278Z,2.85
2023-01-02T12:37:59.282Z,2.03
2023-01-02T12:40:35.379Z,2.92
2023-01-02T12:43:29.896Z,3.70
2023-01-02T12:46:02.758Z,2.17
2023-01-02T12:48:50.995Z,2.97
2023-01-02T12:51:38.506Z,4.95
2023-01-02T12:54:27.107Z,3.05
2023-01-02T12:57:28.169Z,2.40
2023-01-02T13:00:08.792Z,2.88
2023-01-02T13:03:03.939Z,4.20
2023-01-02T13:05:53.983Z,3.88
2023-01-02T13:08:32.494Z,4.03
2023-01-02T13:11:04.173Z,2.90
2023-01-02T13:13:36.496Z,2.17
2023-01-02T13:16:24.507Z,3.60
2023-01-02T13:19:40.066Z,3.05
2023-01-02T13:22:16.072Z,2.47
2023-01-02T13:24:43.546Z,3.15
2023-01-02T13:27:11.429Z,3.17
2023-01-02T13:29:47.476Z,2.63
2023-01-02T13:32:15.583Z,2.20
2023-01-02T13:34:53.991Z,3.00
2023-01-02T13:37:23.948Z,3.35
2023-01-02T13:39:54.631Z,3.38
2023-01-02T13:43:00.458Z,2.65
2023-01-02T13:46:23.723Z,3.63
2023-01-02T13:58:53.349Z,2.90
2023-01-02T14:01:23.929Z,3.17
2023-01-02T14:04:15.868Z,2.13
2023-01-02T14:06:50.025Z,2.58
2023-01-02T14:09:22.099Z,2.90
2023-01-02T14:11:56.259Z,2.38
2023-01-02T14:14:30.148Z,2.10
2023-01-02T14:17:28.487Z,1.45
2023-01-02T14:20:25.701Z,1.90
2023-01-02T14:23:02.545Z,2.08
2023-01-02T14:25:32.066Z,1.88
2023-01-02T14:28:04.652Z,1.95
2023-01-02T14:30:39.847Z,2.80
2023-01-02T14:33:09.538Z,2.70
2023-01-02T14:35:53.892Z,2.33
2023-01-02T14:38:24.770Z,4.75
2023-01-02T14:40:52.669Z,14.68
2023-01-02T14:43:33.696Z,3.75
2023-01-02T14:46:21.286Z,18.88
2023-01-02T14:49:25.587Z,3.22
2023-01-02T14:52:05.137Z,3.47
2023-01-02T14:54:53.829Z,4.40
2023-01-02T14:57:31.422Z,3.83
2023-01-02T15:00:02.716Z,3.97
2023-01-02T15:02:41.396Z,2.90
2023-01-02T15:05:21.781Z,3.65
2023-01-02T15:07:55.816Z,2.90
2023-01-02T15:10:24.095Z,5.05
2023-01-02T15:13:09.232Z,9.73
2023-01-02T15:15:38.386Z,24.80
2023-01-02T15:18:29.803Z,12.40
2023-01-02T15:21:15.929Z,21.77
2023-01-02T15:23:45.014Z,20.73
2023-01-02T15:26:31.493Z,37.05
2023-01-02T15:29:28.767Z,41.92
2023-01-02T15:32:00.454Z,5.90
2023-01-02T15:34:32.836Z,4.63
2023-01-02T15:37:04.635Z,2.47
2023-01-02T15:39:38.471Z,2.58
2023-01-02T15:42:26.679Z,2.90
2023-01-02T15:45:13.588Z,2.25
2023-01-02T15:47:45.873Z,1.95
2023-01-02T15:50:23.960Z,2.33
2023-01-02T15:53:20.935Z,3.50
2023-01-02T15:55:49.395Z,2.60
2023-01-02T15:58:16.320Z,3.70
2023-01-02T16:00:45.239Z,3.05
2023-01-02T16:04:04.045Z,3.15
2023-01-02T16:06:39.838Z,2.67
2023-01-02T16:09:17.630Z,2.90
2023-01-02T16:11:48.400Z,2.60
2023-01-02T16:14:20.310Z,3.10
2023-01-02T16:16:51.870Z,4.43
2023-01-02T16:19:31.302Z,4.15
2023-01-02T16:22:07.015Z,2.83
2023-01-02T16:24:36.784Z,2.80
2023-01-02T16:27:04.718Z,2.80
2023-01-02T16:29:32.838Z,2.42
2023-01-02T16:32:01.722Z,2.13
2023-01-02T16:34:32.993Z,2.40
2023-01-02T16:37:15.578Z,3.63
2023-01-02T16:39:45.305Z,3.30
2023-01-02T16:42:30.910Z,3.33
2023-01-02T16:44:57.851Z,2.40
2023-01-02T16:47:43.110Z,3.50
2023-01-02T16:50:21.988Z,3.05
2023-01-02T16:52:49.728Z,3.55
2023-01-02T16:55:19.993Z,2.72
2023-01-02T16:58:40.369Z,3.03
2023-01-02T17:01:14.217Z,3.83
2023-01-02T17:03:47.860Z,3.38
2023-01-02T17:06:18.294Z,2.72
2023-01-02T17:08:45.630Z,2.65
2023-01-02T17:11:16.403Z,2.45
2023-01-02T17:13:43.469Z,2.97
2023-01-02T17:16:10.560Z,3.13
2023-01-02T17:18:37.516Z,2.63
2023-01-02T17:21:04.650Z,2.50
2023-01-02T17:23:31.616Z,6.55
2023-01-02T17:26:12.292Z,5.32
2023-01-02T17:28:45.240Z,10.70
2023-01-02T17:31:25.333Z,11.18
2023-01-02T17:34:06.641Z,3.35
2023-01-02T17:36:37.172Z,7.82
2023-01-02T17:39:14.561Z,3.15
2023-01-02T17:41:53.686Z,3.17
2023-01-02T17:50:10.984Z,11.55
2023-01-02T17:52:38.460Z,21.63
2023-01-02T17:55:07.532Z,22.00
2023-01-02T17:57:38.971Z,4.60
2023-01-02T18:00:09.753Z,4.10
2023-01-02T18:02:40.045Z,3.90
2023-01-02T18:05:08.195Z,2.70
2023-01-02T18:07:35.325Z,3.50
2023-01-02T18:10:08.625Z,3.33
2023-01-02T18:12:38.096Z,3.20
2023-01-02T18:15:11.964Z,4.18
2023-01-02T18:17:38.796Z,4.10
2023-01-02T18:20:17.593Z,3.95
2023-01-02T18:22:49.665Z,2.75
2023-01-02T18:25:27.321Z,2.80
2023-01-02T18:28:05.109Z,3.33
2023-01-02T18:30:32.172Z,3.50
2023-01-02T18:33:14.466Z,2.28
2023-01-02T18:35:58.528Z,3.17
2023-01-02T18:38:32.189Z,3.17
2023-01-02T18:41:00.163Z,3.25
2023-01-02T18:43:37.056Z,1.90
2023-01-02T18:47:02.120Z,2.67
2023-01-02T18:49:24.188Z,3.10
2023-01-02T18:52:11.992Z,3.17
2023-01-02T18:54:44.739Z,2.70
2023-01-02T18:57:21.541Z,3.63
2023-01-02T18:59:52.404Z,2.42
2023-01-02T19:03:01.023Z,3.80
2023-01-02T19:05:29.568Z,2.42
2023-01-02T19:08:08.699Z,2.72
2023-01-02T19:10:41.404Z,2.67
2023-01-02T19:13:24.471Z,2.80
2023-01-02T19:15:51.945Z,2.53
2023-01-02T19:18:47.628Z,3.33
2023-01-02T19:21:35.886Z,4.20
2023-01-02T19:24:19.397Z,3.50
2023-01-02T19:26:49.009Z,5.25
2023-01-02T19:29:21.629Z,4.47
2023-01-02T19:32:03.762Z,4.00
2023-01-02T19:34:50.431Z,3.40
2023-01-02T19:37:26.341Z,3.17
2023-01-02T19:39:55.382Z,3.33
2023-01-02T19:42:24.385Z,2.55
2023-01-02T19:44:57.080Z,2.65
2023-01-02T19:47:30.133Z,3.00
2023-01-02T19:49:57.986Z,2.50
2023-01-02T19:52:26.511Z,2.65
2023-01-02T19:54:53.558Z,2.75
2023-01-02T19:57:21.805Z,3.42
2023-01-02T19:59:51.811Z,3.75
2023-01-02T20:02:21.150Z,3.80
2023-01-02T20:04:52.272Z,3.20
2023-01-02T20:07:20.556Z,4.47
2023-01-02T20:09:47.758Z,5.10
2023-01-02T20:12:34.652Z,5.85
2023-01-02T20:15:07.997Z,14.43
2023-01-02T20:17:36.109Z,6.80
2023-01-02T20:20:05.196Z,14.70
2023-01-02T20:22:32.403Z,37.60
2023-01-02T20:25:00.239Z,88.50
2023-01-02T20:27:27.392Z,93.82
2023-01-02T20:29:55.416Z,95.35
2023-01-02T20:32:23.767Z,12.50
2023-01-02T20:34:51.903Z,6.07
2023-01-02T20:37:21.107Z,3.72
2023-01-02T20:39:52.345Z,2.47
2023-01-02T20:42:20.343Z,2.88
2023-01-02T20:44:47.781Z,2.38
2023-01-02T20:47:14.894Z,2.50
2023-01-02T20:49:41.955Z,1.58
2023-01-02T20:52:09.297Z,2.33
2023-01-02T20:54:38.430Z,3.55
2023-01-02T20:57:07.004Z,8.40
2023-01-02T20:59:34.488Z,11.27
2023-01-02T21:02:02.207Z,8.95
2023-01-02T21:04:34.402Z,4.95
2023-01-02T21:07:05.798Z,3.85
2023-01-02T21:09:33.070Z,5.10
2023-01-02T21:12:00.043Z,5.57
2023-01-02T21:14:29.035Z,2.65
2023-01-02T21:16:58.894Z,10.32
2023-01-02T21:19:25.830Z,3.15
2023-01-02T21:21:52.736Z,9.82
2023-01-02T21:24:19.635Z,7.13
2023-01-02T21:26:46.559Z,10.15
2023-01-02T21:29:13.676Z,3.22
2023-01-02T21:31:40.703Z,4.00
2023-01-02T21:34:08.023Z,2.20
2023-01-02T21:36:37.073Z,13.88
2023-01-02T21:39:04.095Z,5.43
2023-01-02T21:41:49.576Z,3.45
2023-01-02T21:44:18.549Z,3.75
2023-01-02T21:46:45.536Z,2.78
2023-01-02T21:49:13.058Z,5.57
2023-01-02T21:51:39.979Z,2.30
2023-01-02T21:54:06.896Z,2.17
2023-01-02T21:56:33.855Z,5.18
2023-01-02T21:59:01.370Z,2.22
2023-01-02T22:01:28.712Z,4.03
2023-01-02T22:03:57.478Z,2.67
2023-01-02T22:06:24.549Z,4.95
2023-01-02T22:08:51.470Z,2.42
2023-01-02T22:11:37.012Z,9.38
2023-01-02T22:14:04.019Z,4.47
2023-01-02T22:16:31.580Z,5.70
2023-01-02T22:18:58.552Z,5.32
2023-01-02T22:21:25.583Z,29.05
2023-01-02T22:23:53.593Z,17.38
2023-01-02T22:26:20.570Z,3.45
2023-01-02T22:28:47.428Z,2.40
2023-01-02T22:31:14.724Z,1.77
2023-01-02T22:33:42.105Z,1.60
2023-01-02T22:36:09.458Z,1.50
2023-01-02T22:38:43.935Z,1.67
2023-01-02T22:41:22.323Z,2.50
2023-01-02T22:43:49.266Z,2.10
2023-01-02T22:46:25.423Z,2.35
2023-01-02T22:48:53.015Z,1.52
2023-01-02T22:51:25.893Z,1.98
2023-01-02T22:53:58.142Z,3.15
2023-01-02T22:56:26.393Z,1.80
2023-01-02T22:58:53.256Z,1.50
2023-01-02T23:01:32.607Z,1.60
2023-01-02T23:04:00.237Z,1.50
2023-01-02T23:06:27.973Z,1.17
2023-01-02T23:08:55.260Z,1.33
2023-01-02T23:11:22.773Z,0.98
2023-01-02T23:13:56.016Z,1.20
2023-01-02T23:16:42.284Z,1.10
2023-01-02T23:19:15.188Z,1.23
2023-01-02T23:21:48.396Z,1.38
2023-01-02T23:24:18.204Z,1.30
2023-01-02T23:26:49.162Z,1.52
2023-01-02T23:29:17.855Z,1.45
2023-01-02T23:31:47.431Z,1.40
2023-01-02T23:34:16.862Z,1.40
2023-01-02T23:36:44.364Z,1.48
2023-01-02T23:39:14.728Z,1.70
2023-01-02T23:41:43.697Z,1.67
2023-01-02T23:44:12.612Z,1.42
2023-01-02T23:46:40.357Z,1.30
2023-01-02T23:49:08.719Z,1.30
2023-01-02T23:51:36.567Z,1.48
2023-01-02T23:54:03.537Z,1.77
2023-01-02T23:56:33.013Z,1.42
2023-01-02T23:59:02.010Z,1.10
